Jasper, Illinois
Current Conditions -  °F | °C
As of 9:35 AM on Monday 22 Dec 2014 (Local Time) from KFWC Reporting Station
Haze Haze  
Wind Chill: 39°   Ceiling: 1000
Heat Index: 42°   Visibility: 4mi
Dew Point: 40°   Wind: 5mph
Humidity: 93%   Direction: 130°SE
Pressure: 29.85"   Gusts: NA
Location:  38.3669°N, 88.3516°W
Report Text: KFWC 221535Z AUTO 13004KT 4SM BR OVC010 06/05 A2985 RMK AO1 T00560045
Loading
Personal Weather Stations






























Interactive Weather Map New forecast layout! Learn more

10-Day Weather Forecast

Advertisements
Track Severe Weather on mobile